sensor_id;sensor_type;location;lat;lon;timestamp;pressure;altitude;pressure_sealevel;temperature;humidity
63395;BME280;49531;-34.520;150.798;2023-08-06T00:01:15;102421.13;;;18.38;52.57
63395;BME280;49531;-34.520;150.798;2023-08-06T00:03:42;102413.44;;;18.48;52.14
63395;BME280;49531;-34.520;150.798;2023-08-06T00:06:09;102418.22;;;18.53;52.10
63395;BME280;49531;-34.520;150.798;2023-08-06T00:08:36;102410.75;;;18.55;52.02
63395;BME280;49531;-34.520;150.798;2023-08-06T00:11:03;102410.78;;;18.61;51.97
63395;BME280;49531;-34.520;150.798;2023-08-06T00:13:30;102409.34;;;18.65;51.92
63395;BME280;49531;-34.520;150.798;2023-08-06T00:16:10;102404.78;;;18.73;51.54
63395;BME280;49531;-34.520;150.798;2023-08-06T00:18:37;102401.00;;;18.80;51.89
63395;BME280;49531;-34.520;150.798;2023-08-06T00:21:05;102407.88;;;18.83;51.56
63395;BME280;49531;-34.520;150.798;2023-08-06T00:23:32;102405.38;;;18.88;51.62
63395;BME280;49531;-34.520;150.798;2023-08-06T00:25:59;102404.97;;;18.91;51.37
63395;BME280;49531;-34.520;150.798;2023-08-06T00:28:26;102405.38;;;18.94;51.34
63395;BME280;49531;-34.520;150.798;2023-08-06T00:30:54;102404.34;;;19.02;51.29
63395;BME280;49531;-34.520;150.798;2023-08-06T00:33:22;102405.38;;;19.01;51.02
63395;BME280;49531;-34.520;150.798;2023-08-06T00:35:49;102407.47;;;19.06;50.92
63395;BME280;49531;-34.520;150.798;2023-08-06T00:38:16;102411.22;;;19.11;50.83
63395;BME280;49531;-34.520;150.798;2023-08-06T00:40:43;102407.88;;;19.16;50.75
63395;BME280;49531;-34.520;150.798;2023-08-06T00:43:10;102408.50;;;19.18;50.53
63395;BME280;49531;-34.520;150.798;2023-08-06T00:45:38;102404.50;;;19.20;50.48
63395;BME280;49531;-34.520;150.798;2023-08-06T00:48:06;102409.09;;;19.20;50.67
63395;BME280;49531;-34.520;150.798;2023-08-06T00:50:34;102404.50;;;19.20;50.71
63395;BME280;49531;-34.520;150.798;2023-08-06T00:53:02;102407.00;;;19.22;50.47
63395;BME280;49531;-34.520;150.798;2023-08-06T00:55:29;102407.44;;;19.25;50.25
63395;BME280;49531;-34.520;150.798;2023-08-06T00:57:57;102413.25;;;19.22;50.42
63395;BME280;49531;-34.520;150.798;2023-08-06T01:00:24;102413.69;;;19.26;50.02
63395;BME280;49531;-34.520;150.798;2023-08-06T01:02:53;102411.59;;;19.21;50.13
63395;BME280;49531;-34.520;150.798;2023-08-06T01:05:21;102414.50;;;19.20;49.98
63395;BME280;49531;-34.520;150.798;2023-08-06T01:08:23;102412.88;;;19.12;50.06
63395;BME280;49531;-34.520;150.798;2023-08-06T01:11:06;102407.47;;;19.12;50.09
63395;BME280;49531;-34.520;150.798;2023-08-06T01:13:46;102407.88;;;19.03;49.98
63395;BME280;49531;-34.520;150.798;2023-08-06T01:16:18;102407.69;;;19.04;50.08
63395;BME280;49531;-34.520;150.798;2023-08-06T01:18:47;102394.56;;;19.01;49.96
63395;BME280;49531;-34.520;150.798;2023-08-06T01:21:17;102398.91;;;19.02;49.91
63395;BME280;49531;-34.520;150.798;2023-08-06T01:23:45;102391.22;;;18.99;49.92
63395;BME280;49531;-34.520;150.798;2023-08-06T01:26:27;102394.56;;;18.94;49.99
63395;BME280;49531;-34.520;150.798;2023-08-06T01:29:19;102397.03;;;18.96;50.01
63395;BME280;49531;-34.520;150.798;2023-08-06T01:31:52;102389.56;;;18.91;49.73
63395;BME280;49531;-34.520;150.798;2023-08-06T01:34:25;102386.63;;;18.93;49.88
63395;BME280;49531;-34.520;150.798;2023-08-06T01:36:54;102384.97;;;18.85;49.91
63395;BME280;49531;-34.520;150.798;2023-08-06T01:39:22;102381.41;;;18.85;50.13
63395;BME280;49531;-34.520;150.798;2023-08-06T01:41:49;102387.88;;;18.90;49.85
63395;BME280;49531;-34.520;150.798;2023-08-06T01:44:17;102374.56;;;18.89;50.10
63395;BME280;49531;-34.520;150.798;2023-08-06T01:46:44;102362.06;;;18.88;50.06
63395;BME280;49531;-34.520;150.798;2023-08-06T01:49:11;102358.09;;;18.84;50.04
63395;BME280;49531;-34.520;150.798;2023-08-06T01:51:39;102361.22;;;18.87;49.79
63395;BME280;49531;-34.520;150.798;2023-08-06T01:54:06;102347.06;;;18.92;49.65
63395;BME280;49531;-34.520;150.798;2023-08-06T01:56:33;102356.22;;;18.91;49.64
63395;BME280;49531;-34.520;150.798;2023-08-06T01:59:00;102341.22;;;18.88;49.98
63395;BME280;49531;-34.520;150.798;2023-08-06T02:01:27;102341.22;;;18.95;50.01
63395;BME280;49531;-34.520;150.798;2023-08-06T02:03:54;102336.22;;;18.92;50.12
63395;BME280;49531;-34.520;150.798;2023-08-06T02:06:21;102327.25;;;18.98;50.00
63395;BME280;49531;-34.520;150.798;2023-08-06T02:08:48;102328.31;;;18.97;49.86
63395;BME280;49531;-34.520;150.798;2023-08-06T02:11:15;102329.97;;;18.91;50.12
63395;BME280;49531;-34.520;150.798;2023-08-06T02:13:42;102317.47;;;18.97;50.20
63395;BME280;49531;-34.520;150.798;2023-08-06T02:16:09;102311.63;;;19.00;50.17
63395;BME280;49531;-34.520;150.798;2023-08-06T02:18:36;102321.22;;;19.09;49.93
63395;BME280;49531;-34.520;150.798;2023-08-06T02:21:03;102313.91;;;19.10;49.63
63395;BME280;49531;-34.520;150.798;2023-08-06T02:23:31;102307.03;;;19.07;49.79
63395;BME280;49531;-34.520;150.798;2023-08-06T02:26:00;102306.19;;;19.13;49.65
63395;BME280;49531;-34.520;150.798;2023-08-06T02:28:28;102304.94;;;19.16;49.65
63395;BME280;49531;-34.520;150.798;2023-08-06T02:30:55;102289.94;;;19.13;49.45
63395;BME280;49531;-34.520;150.798;2023-08-06T02:33:22;102292.25;;;19.16;49.54
63395;BME280;49531;-34.520;150.798;2023-08-06T02:35:49;102283.28;;;19.16;49.46
63395;BME280;49531;-34.520;150.798;2023-08-06T02:38:17;102277.44;;;19.12;49.42
63395;BME280;49531;-34.520;150.798;2023-08-06T02:40:46;102282.19;;;19.23;49.31
63395;BME280;49531;-34.520;150.798;2023-08-06T02:43:13;102271.34;;;19.23;49.52
63395;BME280;49531;-34.520;150.798;2023-08-06T02:45:40;102273.63;;;19.26;49.22
63395;BME280;49531;-34.520;150.798;2023-08-06T02:48:07;102270.31;;;19.24;49.48
63395;BME280;49531;-34.520;150.798;2023-08-06T02:50:39;102271.13;;;19.25;49.44
63395;BME280;49531;-34.520;150.798;2023-08-06T02:53:07;102269.44;;;19.30;49.08
63395;BME280;49531;-34.520;150.798;2023-08-06T02:55:35;102267.97;;;19.35;48.92
63395;BME280;49531;-34.520;150.798;2023-08-06T02:58:03;102258.41;;;19.32;48.88
63395;BME280;49531;-34.520;150.798;2023-08-06T03:00:30;102254.03;;;19.31;48.72
63395;BME280;49531;-34.520;150.798;2023-08-06T03:02:57;102258.41;;;19.32;48.45
63395;BME280;49531;-34.520;150.798;2023-08-06T03:05:24;102249.44;;;19.31;48.37
63395;BME280;49531;-34.520;150.798;2023-08-06T03:07:51;102246.13;;;19.23;48.80
63395;BME280;49531;-34.520;150.798;2023-08-06T03:10:18;102252.38;;;19.30;48.67
63395;BME280;49531;-34.520;150.798;2023-08-06T03:12:46;102250.28;;;19.25;48.88
63395;BME280;49531;-34.520;150.798;2023-08-06T03:15:13;102244.69;;;19.20;48.85
63395;BME280;49531;-34.520;150.798;2023-08-06T03:17:40;102244.25;;;19.23;48.77
63395;BME280;49531;-34.520;150.798;2023-08-06T03:20:07;102248.81;;;19.29;48.70
63395;BME280;49531;-34.520;150.798;2023-08-06T03:22:34;102246.97;;;19.23;48.71
63395;BME280;49531;-34.520;150.798;2023-08-06T03:25:02;102243.63;;;19.21;48.87
63395;BME280;49531;-34.520;150.798;2023-08-06T03:27:30;102229.31;;;19.14;48.90
63395;BME280;49531;-34.520;150.798;2023-08-06T03:29:57;102243.63;;;19.21;48.82
63395;BME280;49531;-34.520;150.798;2023-08-06T03:32:26;102234.09;;;19.19;49.29
63395;BME280;49531;-34.520;150.798;2023-08-06T03:34:53;102236.31;;;19.28;48.70
63395;BME280;49531;-34.520;150.798;2023-08-06T03:37:20;102240.47;;;19.31;48.58
63395;BME280;49531;-34.520;150.798;2023-08-06T03:39:47;102226.72;;;19.32;48.55
63395;BME280;49531;-34.520;150.798;2023-08-06T03:42:14;102233.19;;;19.31;48.42
63395;BME280;49531;-34.520;150.798;2023-08-06T03:44:44;102227.75;;;19.31;48.47
63395;BME280;49531;-34.520;150.798;2023-08-06T03:47:11;102226.31;;;19.29;48.78
63395;BME280;49531;-34.520;150.798;2023-08-06T03:49:38;102224.41;;;19.36;48.57
63395;BME280;49531;-34.520;150.798;2023-08-06T03:52:06;102229.63;;;19.38;48.51
63395;BME280;49531;-34.520;150.798;2023-08-06T03:54:35;102225.25;;;19.37;48.55
63395;BME280;49531;-34.520;150.798;2023-08-06T03:57:03;102227.75;;;19.31;48.77
63395;BME280;49531;-34.520;150.798;2023-08-06T03:59:31;102223.78;;;19.34;48.53
63395;BME280;49531;-34.520;150.798;2023-08-06T04:01:58;102225.69;;;19.33;48.57
63395;BME280;49531;-34.520;150.798;2023-08-06T04:04:25;102213.19;;;19.26;48.62
63395;BME280;49531;-34.520;150.798;2023-08-06T04:06:52;102222.38;;;19.25;48.80
63395;BME280;49531;-34.520;150.798;2023-08-06T04:09:19;102221.53;;;19.24;48.90
63395;BME280;49531;-34.520;150.798;2023-08-06T04:11:47;102214.03;;;19.26;48.84
63395;BME280;49531;-34.520;150.798;2023-08-06T04:14:14;102214.44;;;19.30;48.82
63395;BME280;49531;-34.520;150.798;2023-08-06T04:16:41;102208.41;;;19.28;49.02
63395;BME280;49531;-34.520;150.798;2023-08-06T04:19:08;102210.72;;;19.24;48.78
63395;BME280;49531;-34.520;150.798;2023-08-06T04:21:35;102207.38;;;19.22;49.12
63395;BME280;49531;-34.520;150.798;2023-08-06T04:24:03;102212.97;;;19.27;48.91
63395;BME280;49531;-34.520;150.798;2023-08-06T04:26:30;102214.88;;;19.27;49.13
63395;BME280;49531;-34.520;150.798;2023-08-06T04:28:57;102207.16;;;19.24;49.20
63395;BME280;49531;-34.520;150.798;2023-08-06T04:31:25;102204.44;;;19.30;49.01
63395;BME280;49531;-34.520;150.798;2023-08-06T04:33:52;102206.09;;;19.31;48.94
63395;BME280;49531;-34.520;150.798;2023-08-06T04:36:19;102203.97;;;19.40;48.34
63395;BME280;49531;-34.520;150.798;2023-08-06T04:38:46;102191.25;;;19.41;48.38
63395;BME280;49531;-34.520;150.798;2023-08-06T04:41:13;102202.53;;;19.38;48.45
63395;BME280;49531;-34.520;150.798;2023-08-06T04:43:40;102201.69;;;19.37;48.19
63395;BME280;49531;-34.520;150.798;2023-08-06T04:46:07;102200.66;;;19.38;48.35
63395;BME280;49531;-34.520;150.798;2023-08-06T04:48:34;102198.78;;;19.32;48.89
63395;BME280;49531;-34.520;150.798;2023-08-06T04:51:01;102199.00;;;19.30;48.84
63395;BME280;49531;-34.520;150.798;2023-08-06T04:53:28;102200.06;;;19.29;48.86
63395;BME280;49531;-34.520;150.798;2023-08-06T04:55:56;102200.66;;;19.31;48.71
63395;BME280;49531;-34.520;150.798;2023-08-06T04:58:23;102194.84;;;19.28;48.63
63395;BME280;49531;-34.520;150.798;2023-08-06T05:00:50;102198.78;;;19.32;48.47
63395;BME280;49531;-34.520;150.798;2023-08-06T05:03:17;102207.31;;;19.36;48.40
63395;BME280;49531;-34.520;150.798;2023-08-06T05:05:46;102212.31;;;19.39;48.43
63395;BME280;49531;-34.520;150.798;2023-08-06T05:08:19;102207.94;;;19.38;48.23
63395;BME280;49531;-34.520;150.798;2023-08-06T05:10:49;102208.13;;;19.43;48.18
63395;BME280;49531;-34.520;150.798;2023-08-06T05:13:16;102216.88;;;19.45;48.25
63395;BME280;49531;-34.520;150.798;2023-08-06T05:15:43;102207.69;;;19.46;48.31
63395;BME280;49531;-34.520;150.798;2023-08-06T05:18:12;102212.31;;;19.39;48.38
63395;BME280;49531;-34.520;150.798;2023-08-06T05:20:41;102214.41;;;19.37;48.68
63395;BME280;49531;-34.520;150.798;2023-08-06T05:23:09;102205.22;;;19.38;48.49
63395;BME280;49531;-34.520;150.798;2023-08-06T05:25:36;102199.38;;;19.41;48.09
63395;BME280;49531;-34.520;150.798;2023-08-06T05:28:04;102211.88;;;19.42;47.73
63395;BME280;49531;-34.520;150.798;2023-08-06T05:30:31;102198.72;;;19.45;47.55
63395;BME280;49531;-34.520;150.798;2023-08-06T05:32:58;102206.44;;;19.48;47.47
63395;BME280;49531;-34.520;150.798;2023-08-06T05:35:28;102214.34;;;19.50;47.63
63395;BME280;49531;-34.520;150.798;2023-08-06T05:37:56;102218.31;;;19.47;47.65
63395;BME280;49531;-34.520;150.798;2023-08-06T05:40:23;102219.38;;;19.46;47.81
63395;BME280;49531;-34.520;150.798;2023-08-06T05:42:53;102220.63;;;19.44;47.99
63395;BME280;49531;-34.520;150.798;2023-08-06T05:45:20;102215.03;;;19.39;48.00
63395;BME280;49531;-34.520;150.798;2023-08-06T05:47:49;102215.81;;;19.46;48.01
63395;BME280;49531;-34.520;150.798;2023-08-06T05:50:16;102222.50;;;19.43;48.04
63395;BME280;49531;-34.520;150.798;2023-08-06T05:52:43;102219.19;;;19.41;47.92
63395;BME280;49531;-34.520;150.798;2023-08-06T05:55:10;102222.72;;;19.42;48.10
63395;BME280;49531;-34.520;150.798;2023-08-06T05:57:37;102217.28;;;19.48;47.89
63395;BME280;49531;-34.520;150.798;2023-08-06T06:00:04;102219.97;;;19.48;47.64
63395;BME280;49531;-34.520;150.798;2023-08-06T06:02:32;102233.53;;;19.48;47.81
63395;BME280;49531;-34.520;150.798;2023-08-06T06:04:59;102233.13;;;19.45;47.48
63395;BME280;49531;-34.520;150.798;2023-08-06T06:07:27;102229.38;;;19.46;47.54
63395;BME280;49531;-34.520;150.798;2023-08-06T06:09:54;102227.50;;;19.46;47.63
63395;BME280;49531;-34.520;150.798;2023-08-06T06:12:21;102242.09;;;19.45;47.68
63395;BME280;49531;-34.520;150.798;2023-08-06T06:14:48;102227.31;;;19.41;47.62
63395;BME280;49531;-34.520;150.798;2023-08-06T06:17:15;102228.16;;;19.35;47.49
63395;BME280;49531;-34.520;150.798;2023-08-06T06:19:42;102224.63;;;19.35;47.32
63395;BME280;49531;-34.520;150.798;2023-08-06T06:22:09;102230.47;;;19.31;47.11
63395;BME280;49531;-34.520;150.798;2023-08-06T06:24:36;102228.59;;;19.32;47.22
63395;BME280;49531;-34.520;150.798;2023-08-06T06:27:04;102214.88;;;19.27;47.11
63395;BME280;49531;-34.520;150.798;2023-08-06T06:29:31;102231.09;;;19.33;47.58
63395;BME280;49531;-34.520;150.798;2023-08-06T06:31:58;102225.47;;;19.35;47.47
63395;BME280;49531;-34.520;150.798;2023-08-06T06:34:25;102231.72;;;19.36;47.13
63395;BME280;49531;-34.520;150.798;2023-08-06T06:36:52;102221.50;;;19.31;47.20
63395;BME280;49531;-34.520;150.798;2023-08-06T06:39:20;102227.34;;;19.35;46.83
63395;BME280;49531;-34.520;150.798;2023-08-06T06:41:47;102225.69;;;19.33;46.85
63395;BME280;49531;-34.520;150.798;2023-08-06T06:44:17;102233.81;;;19.33;46.82
63395;BME280;49531;-34.520;150.798;2023-08-06T06:46:46;102236.09;;;19.37;46.59
63395;BME280;49531;-34.520;150.798;2023-08-06T06:49:13;102231.53;;;19.30;46.55
63395;BME280;49531;-34.520;150.798;2023-08-06T06:51:40;102236.72;;;19.32;46.51
63395;BME280;49531;-34.520;150.798;2023-08-06T06:54:07;102234.44;;;19.29;46.60
63395;BME280;49531;-34.520;150.798;2023-08-06T06:56:34;102235.50;;;19.28;46.48
63395;BME280;49531;-34.520;150.798;2023-08-06T06:59:01;102240.69;;;19.29;46.41
63395;BME280;49531;-34.520;150.798;2023-08-06T07:01:28;102240.28;;;19.26;46.42
63395;BME280;49531;-34.520;150.798;2023-08-06T07:03:55;102239.47;;;19.25;46.35
63395;BME280;49531;-34.520;150.798;2023-08-06T07:06:23;102242.59;;;19.22;46.29
63395;BME280;49531;-34.520;150.798;2023-08-06T07:08:50;102243.63;;;19.21;46.52
63395;BME280;49531;-34.520;150.798;2023-08-06T07:11:18;102246.34;;;19.21;46.39
63395;BME280;49531;-34.520;150.798;2023-08-06T07:13:45;102243.44;;;19.23;45.95
63395;BME280;49531;-34.520;150.798;2023-08-06T07:16:12;102233.84;;;19.20;46.20
63395;BME280;49531;-34.520;150.798;2023-08-06T07:18:39;102231.59;;;19.17;46.15
63395;BME280;49531;-34.520;150.798;2023-08-06T07:21:06;102240.69;;;19.29;46.45
63395;BME280;49531;-34.520;150.798;2023-08-06T07:23:33;102244.03;;;19.31;46.30
63395;BME280;49531;-34.520;150.798;2023-08-06T07:26:00;102249.44;;;19.31;46.04
63395;BME280;49531;-34.520;150.798;2023-08-06T07:28:28;102241.16;;;19.20;46.03
63395;BME280;49531;-34.520;150.798;2023-08-06T07:30:55;102250.94;;;19.21;46.22
63395;BME280;49531;-34.520;150.798;2023-08-06T07:33:22;102246.53;;;19.26;46.06
63395;BME280;49531;-34.520;150.798;2023-08-06T07:35:49;102258.00;;;19.28;46.08
63395;BME280;49531;-34.520;150.798;2023-08-06T07:38:16;102250.72;;;19.22;45.71
63395;BME280;49531;-34.520;150.798;2023-08-06T07:40:43;102259.13;;;19.14;45.67
63395;BME280;49531;-34.520;150.798;2023-08-06T07:43:10;102253.69;;;19.14;45.82
63395;BME280;49531;-34.520;150.798;2023-08-06T07:45:37;102259.31;;;19.13;45.76
63395;BME280;49531;-34.520;150.798;2023-08-06T07:48:05;102262.44;;;19.16;45.75
63395;BME280;49531;-34.520;150.798;2023-08-06T07:50:32;102268.28;;;19.13;45.65
63395;BME280;49531;-34.520;150.798;2023-08-06T07:52:59;102263.72;;;19.07;45.81
63395;BME280;49531;-34.520;150.798;2023-08-06T07:55:26;102271.84;;;19.07;45.75
63395;BME280;49531;-34.520;150.798;2023-08-06T07:57:54;102271.84;;;19.07;45.78
63395;BME280;49531;-34.520;150.798;2023-08-06T08:00:21;102267.47;;;19.06;45.94
63395;BME280;49531;-34.520;150.798;2023-08-06T08:02:48;102282.66;;;19.07;45.59
63395;BME280;49531;-34.520;150.798;2023-08-06T08:05:15;102269.56;;;19.04;45.78
63395;BME280;49531;-34.520;150.798;2023-08-06T08:07:42;102273.09;;;19.05;45.57
63395;BME280;49531;-34.520;150.798;2023-08-06T08:10:10;102277.47;;;18.99;45.81
63395;BME280;49531;-34.520;150.798;2023-08-06T08:12:37;102285.19;;;19.02;45.59
63395;BME280;49531;-34.520;150.798;2023-08-06T08:15:05;102282.28;;;18.97;45.73
63395;BME280;49531;-34.520;150.798;2023-08-06T08:17:33;102284.56;;;19.00;45.58
63395;BME280;49531;-34.520;150.798;2023-08-06T08:20:00;102295.19;;;18.95;45.91
63395;BME280;49531;-34.520;150.798;2023-08-06T08:22:28;102285.81;;;18.91;45.82
63395;BME280;49531;-34.520;150.798;2023-08-06T08:24:55;102297.47;;;18.91;45.80
63395;BME280;49531;-34.520;150.798;2023-08-06T08:27:28;102295.00;;;18.90;45.97
63395;BME280;49531;-34.520;150.798;2023-08-06T08:29:56;102293.94;;;18.91;46.01
63395;BME280;49531;-34.520;150.798;2023-08-06T08:32:24;102299.34;;;18.91;46.13
63395;BME280;49531;-34.520;150.798;2023-08-06T08:34:51;102303.94;;;18.90;45.77
63395;BME280;49531;-34.520;150.798;2023-08-06T08:37:18;102290.63;;;18.89;45.85
63395;BME280;49531;-34.520;150.798;2023-08-06T08:39:45;102301.03;;;18.92;45.81
63395;BME280;49531;-34.520;150.798;2023-08-06T08:42:12;102310.81;;;18.93;45.79
63395;BME280;49531;-34.520;150.798;2023-08-06T08:44:42;102293.75;;;18.86;46.08
63395;BME280;49531;-34.520;150.798;2023-08-06T08:47:11;102308.53;;;18.83;46.12
63395;BME280;49531;-34.520;150.798;2023-08-06T08:49:39;102313.53;;;18.80;46.24
63395;BME280;49531;-34.520;150.798;2023-08-06T08:52:07;102319.34;;;18.83;46.25
63395;BME280;49531;-34.520;150.798;2023-08-06T08:54:39;102305.44;;;18.73;46.36
63395;BME280;49531;-34.520;150.798;2023-08-06T08:57:06;102304.19;;;18.76;46.30
63395;BME280;49531;-34.520;150.798;2023-08-06T08:59:34;102310.03;;;18.79;46.18
63395;BME280;49531;-34.520;150.798;2023-08-06T09:02:01;102304.19;;;18.76;46.21
63395;BME280;49531;-34.520;150.798;2023-08-06T09:04:30;102297.13;;;18.75;46.44
63395;BME280;49531;-34.520;150.798;2023-08-06T09:06:59;102304.81;;;18.78;46.26
63395;BME280;49531;-34.520;150.798;2023-08-06T09:09:30;102310.03;;;18.79;46.30
63395;BME280;49531;-34.520;150.798;2023-08-06T09:12:01;102312.50;;;18.81;46.19
63395;BME280;49531;-34.520;150.798;2023-08-06T09:14:28;102305.44;;;18.73;46.35
63395;BME280;49531;-34.520;150.798;2023-08-06T09:16:56;102313.34;;;18.75;46.31
63395;BME280;49531;-34.520;150.798;2023-08-06T09:19:24;102306.50;;;18.72;46.22
63395;BME280;49531;-34.520;150.798;2023-08-06T09:21:52;102304.63;;;18.73;46.28
63395;BME280;49531;-34.520;150.798;2023-08-06T09:24:20;102307.94;;;18.68;46.46
63395;BME280;49531;-34.520;150.798;2023-08-06T09:26:48;102315.66;;;18.64;46.46
63395;BME280;49531;-34.520;150.798;2023-08-06T09:29:15;102319.19;;;18.65;46.69
63395;BME280;49531;-34.520;150.798;2023-08-06T09:31:45;102323.75;;;18.64;46.78
63395;BME280;49531;-34.520;150.798;2023-08-06T09:34:18;102317.09;;;18.67;46.42
63395;BME280;49531;-34.520;150.798;2023-08-06T09:36:51;102314.41;;;18.60;46.73
63395;BME280;49531;-34.520;150.798;2023-08-06T09:39:22;102320.22;;;18.64;46.68
63395;BME280;49531;-34.520;150.798;2023-08-06T09:41:49;102315.22;;;18.61;46.38
63395;BME280;49531;-34.520;150.798;2023-08-06T09:44:23;102319.34;;;18.57;46.54
63395;BME280;49531;-34.520;150.798;2023-08-06T09:46:53;102317.91;;;18.54;46.94
63395;BME280;49531;-34.520;150.798;2023-08-06T09:49:25;102320.59;;;18.54;46.77
63395;BME280;49531;-34.520;150.798;2023-08-06T09:51:54;102318.31;;;18.51;46.89
63395;BME280;49531;-34.520;150.798;2023-08-06T09:54:24;102322.69;;;18.52;46.41
63395;BME280;49531;-34.520;150.798;2023-08-06T09:57:02;102324.13;;;18.48;46.52
63395;BME280;49531;-34.520;150.798;2023-08-06T09:59:30;102319.56;;;18.49;46.69
63395;BME280;49531;-34.520;150.798;2023-08-06T10:01:58;102321.00;;;18.45;46.60
63395;BME280;49531;-34.520;150.798;2023-08-06T10:04:25;102316.84;;;18.42;46.55
63395;BME280;49531;-34.520;150.798;2023-08-06T10:06:52;102320.38;;;18.43;46.50
63395;BME280;49531;-34.520;150.798;2023-08-06T10:09:20;102317.06;;;18.47;46.67
63395;BME280;49531;-34.520;150.798;2023-08-06T10:11:51;102313.72;;;18.45;46.66
63395;BME280;49531;-34.520;150.798;2023-08-06T10:14:28;102319.56;;;18.42;46.80
63395;BME280;49531;-34.520;150.798;2023-08-06T10:16:58;102316.00;;;18.42;46.71
63395;BME280;49531;-34.520;150.798;2023-08-06T10:19:26;102306.03;;;18.36;46.69
63395;BME280;49531;-34.520;150.798;2023-08-06T10:22:12;102314.59;;;18.39;46.70
63395;BME280;49531;-34.520;150.798;2023-08-06T10:24:50;102321.25;;;18.37;46.84
63395;BME280;49531;-34.520;150.798;2023-08-06T10:27:22;102324.56;;;18.32;46.96
63395;BME280;49531;-34.520;150.798;2023-08-06T10:29:49;102314.97;;;18.29;46.94
63395;BME280;49531;-34.520;150.798;2023-08-06T10:32:16;102319.97;;;18.26;47.11
63395;BME280;49531;-34.520;150.798;2023-08-06T10:34:57;102316.22;;;18.27;46.84
63395;BME280;49531;-34.520;150.798;2023-08-06T10:37:35;102323.09;;;18.23;47.11
63395;BME280;49531;-34.520;150.798;2023-08-06T10:40:03;102317.69;;;18.23;46.88
63395;BME280;49531;-34.520;150.798;2023-08-06T10:42:33;102319.34;;;18.24;46.76
63395;BME280;49531;-34.520;150.798;2023-08-06T10:45:13;102313.28;;;18.15;47.06
63395;BME280;49531;-34.520;150.798;2023-08-06T10:47:42;102309.97;;;18.20;47.20
63395;BME280;49531;-34.520;150.798;2023-08-06T10:50:13;102316.22;;;18.20;46.81
63395;BME280;49531;-34.520;150.798;2023-08-06T10:52:45;102311.00;;;18.19;47.11
63395;BME280;49531;-34.520;150.798;2023-08-06T10:55:14;102310.59;;;18.15;47.28
63395;BME280;49531;-34.520;150.798;2023-08-06T10:57:41;102303.72;;;18.13;46.94
63395;BME280;49531;-34.520;150.798;2023-08-06T11:00:09;102307.03;;;18.08;47.05
63395;BME280;49531;-34.520;150.798;2023-08-06T11:02:39;102304.53;;;18.07;47.10
63395;BME280;49531;-34.520;150.798;2023-08-06T11:05:08;102308.28;;;18.06;46.97
63395;BME280;49531;-34.520;150.798;2023-08-06T11:07:36;102315.75;;;18.04;47.41
63395;BME280;49531;-34.520;150.798;2023-08-06T11:10:07;102306.38;;;17.99;47.10
63395;BME280;49531;-34.520;150.798;2023-08-06T11:12:35;102304.53;;;18.00;47.07
63395;BME280;49531;-34.520;150.798;2023-08-06T11:15:03;102298.72;;;17.96;47.05
63395;BME280;49531;-34.520;150.798;2023-08-06T11:17:32;102299.94;;;18.00;46.97
63395;BME280;49531;-34.520;150.798;2023-08-06T11:20:02;102300.78;;;18.01;47.07
63395;BME280;49531;-34.520;150.798;2023-08-06T11:22:30;102300.38;;;18.04;46.70
63395;BME280;49531;-34.520;150.798;2023-08-06T11:24:57;102294.75;;;18.06;46.77
63395;BME280;49531;-34.520;150.798;2023-08-06T11:27:27;102296.84;;;18.04;46.77
63395;BME280;49531;-34.520;150.798;2023-08-06T11:29:55;102281.66;;;18.03;46.62
63395;BME280;49531;-34.520;150.798;2023-08-06T11:32:22;102292.47;;;18.03;46.83
63395;BME280;49531;-34.520;150.798;2023-08-06T11:34:49;102283.31;;;18.04;46.70
63395;BME280;49531;-34.520;150.798;2023-08-06T11:37:16;102289.75;;;18.03;46.78
63395;BME280;49531;-34.520;150.798;2023-08-06T11:39:48;102289.13;;;18.00;46.56
63395;BME280;49531;-34.520;150.798;2023-08-06T11:42:15;102287.47;;;17.99;46.62
63395;BME280;49531;-34.520;150.798;2023-08-06T11:44:43;102290.59;;;17.96;46.72
63395;BME280;49531;-34.520;150.798;2023-08-06T11:47:17;102294.34;;;17.95;46.66
63395;BME280;49531;-34.520;150.798;2023-08-06T11:49:47;102284.97;;;17.91;46.59
63395;BME280;49531;-34.520;150.798;2023-08-06T11:52:21;102288.72;;;17.90;46.66
63395;BME280;49531;-34.520;150.798;2023-08-06T11:55:06;102276.03;;;17.91;46.72
63395;BME280;49531;-34.520;150.798;2023-08-06T11:57:37;102285.59;;;17.87;46.64
63395;BME280;49531;-34.520;150.798;2023-08-06T12:00:07;102280.38;;;17.85;46.73
63395;BME280;49531;-34.520;150.798;2023-08-06T12:02:35;102274.13;;;17.78;46.71
63395;BME280;49531;-34.520;150.798;2023-08-06T12:05:11;102278.50;;;17.79;46.78
63395;BME280;49531;-34.520;150.798;2023-08-06T12:07:45;102284.09;;;17.78;46.89
63395;BME280;49531;-34.520;150.798;2023-08-06T12:10:13;102279.53;;;17.78;46.78
63395;BME280;49531;-34.520;150.798;2023-08-06T12:12:41;102283.03;;;17.72;46.80
63395;BME280;49531;-34.520;150.798;2023-08-06T12:15:09;102278.69;;;17.71;46.86
63395;BME280;49531;-34.520;150.798;2023-08-06T12:17:39;102280.34;;;17.72;46.71
63395;BME280;49531;-34.520;150.798;2023-08-06T12:20:07;102274.94;;;17.72;46.80
63395;BME280;49531;-34.520;150.798;2023-08-06T12:22:35;102270.34;;;17.66;46.79
63395;BME280;49531;-34.520;150.798;2023-08-06T12:25:06;102280.13;;;17.67;46.91
63395;BME280;49531;-34.520;150.798;2023-08-06T12:27:35;102274.91;;;17.65;46.75